createdAt,value
2023-02-08T00:01:44.052Z,61.76
2023-02-08T00:04:10.442Z,61.59
2023-02-08T00:06:36.788Z,61.81
2023-02-08T00:09:03.772Z,61.55
2023-02-08T00:11:30.165Z,61.45
2023-02-08T00:13:56.534Z,61.77
2023-02-08T00:16:23.003Z,61.86
2023-02-08T00:18:49.448Z,61.90
2023-02-08T00:21:17.183Z,61.76
2023-02-08T00:23:44.092Z,61.72
2023-02-08T00:26:10.866Z,61.77
2023-02-08T00:28:37.373Z,61.38
2023-02-08T00:31:04.346Z,61.33
2023-02-08T00:33:30.917Z,61.59
2023-02-08T00:36:06.007Z,61.58
2023-02-08T00:38:32.433Z,61.30
2023-02-08T00:40:58.774Z,61.30
2023-02-08T00:43:25.392Z,61.08
2023-02-08T00:45:56.123Z,61.09
2023-02-08T00:48:22.586Z,61.09
2023-02-08T00:50:58.201Z,61.04
2023-02-08T00:53:24.760Z,61.36
2023-02-08T00:55:55.166Z,61.34
2023-02-08T00:58:22.696Z,60.76
2023-02-08T01:00:52.510Z,60.78
2023-02-08T01:03:20.212Z,61.00
2023-02-08T01:05:46.732Z,60.87
2023-02-08T01:08:13.178Z,60.72
2023-02-08T01:10:39.864Z,60.89
2023-02-08T01:13:06.443Z,60.53
2023-02-08T01:15:33.091Z,60.98
2023-02-08T01:17:59.630Z,60.55
2023-02-08T01:20:26.068Z,60.49
2023-02-08T01:22:52.699Z,60.95
2023-02-08T01:25:19.189Z,60.48
2023-02-08T01:27:45.597Z,60.41
2023-02-08T01:30:12.656Z,61.05
2023-02-08T01:32:39.085Z,60.90
2023-02-08T01:35:05.898Z,60.98
2023-02-08T01:37:32.266Z,60.58
2023-02-08T01:39:58.687Z,60.98
2023-02-08T01:42:25.234Z,60.61
2023-02-08T01:45:17.581Z,60.71
2023-02-08T01:47:47.033Z,60.57
2023-02-08T01:50:15.554Z,60.92
2023-02-08T01:52:44.566Z,60.49
2023-02-08T01:55:38.514Z,60.39
2023-02-08T01:58:08.993Z,60.22
2023-02-08T02:00:35.588Z,59.98
2023-02-08T02:03:04.705Z,59.98
2023-02-08T02:05:38.208Z,60.32
2023-02-08T02:08:05.034Z,60.36
2023-02-08T02:10:34.234Z,60.02
2023-02-08T02:13:09.337Z,60.32
2023-02-08T02:15:35.999Z,59.56
2023-02-08T02:18:04.958Z,59.74
2023-02-08T02:20:45.160Z,60.31
2023-02-08T02:23:30.335Z,59.76
2023-02-08T02:26:25.150Z,59.99
2023-02-08T02:29:09.920Z,59.46
2023-02-08T02:31:59.831Z,59.77
2023-02-08T02:34:34.842Z,59.51
2023-02-08T02:37:04.156Z,59.50
2023-02-08T02:39:41.629Z,59.16
2023-02-08T02:42:26.963Z,59.46
2023-02-08T02:45:10.301Z,59.60
2023-02-08T02:47:53.525Z,59.37
2023-02-08T02:51:02.595Z,59.56
2023-02-08T02:53:34.013Z,59.88
2023-02-08T02:56:12.241Z,59.69
2023-02-08T02:58:40.920Z,60.05
2023-02-08T03:01:07.438Z,59.95
2023-02-08T03:03:34.960Z,59.78
2023-02-08T03:06:06.266Z,59.88
2023-02-08T03:08:55.920Z,59.66
2023-02-08T03:11:26.471Z,59.82
2023-02-08T03:14:12.692Z,59.59
2023-02-08T03:17:02.430Z,59.60
2023-02-08T03:19:53.287Z,59.52
2023-02-08T03:22:34.949Z,59.89
2023-02-08T03:25:31.325Z,59.96
2023-02-08T03:28:11.036Z,59.66
2023-02-08T03:30:53.559Z,59.81
2023-02-08T03:33:36.768Z,60.02
2023-02-08T03:36:08.664Z,59.87
2023-02-08T03:38:41.378Z,59.62
2023-02-08T03:41:11.781Z,59.78
2023-02-08T03:43:44.917Z,59.92
2023-02-08T03:46:24.661Z,60.01
2023-02-08T03:49:05.172Z,59.81
2023-02-08T03:51:34.390Z,60.12
2023-02-08T03:54:05.793Z,59.88
2023-02-08T03:56:41.776Z,59.91
2023-02-08T03:59:18.321Z,59.81
2023-02-08T04:01:49.870Z,60.01
2023-02-08T04:04:20.236Z,59.80
2023-02-08T04:06:46.711Z,59.80
2023-02-08T04:09:13.236Z,59.51
2023-02-08T04:11:39.660Z,59.63
2023-02-08T04:14:06.053Z,59.29
2023-02-08T04:16:32.431Z,59.81
2023-02-08T04:18:58.861Z,59.31
2023-02-08T04:21:25.388Z,59.56
2023-02-08T04:23:51.832Z,59.50
2023-02-08T04:26:18.271Z,59.91
2023-02-08T04:28:44.955Z,59.66
2023-02-08T04:31:11.537Z,59.63
2023-02-08T04:33:38.032Z,59.93
2023-02-08T04:36:04.985Z,59.60
2023-02-08T04:38:31.457Z,59.38
2023-02-08T04:40:57.983Z,59.62
2023-02-08T04:43:24.421Z,59.54
2023-02-08T04:45:51.268Z,59.88
2023-02-08T04:48:18.778Z,59.88
2023-02-08T04:50:45.251Z,59.99
2023-02-08T04:53:15.074Z,60.31
2023-02-08T04:55:41.542Z,59.79
2023-02-08T04:58:08.018Z,59.86
2023-02-08T05:00:34.486Z,59.53
2023-02-08T05:03:00.969Z,59.95
2023-02-08T05:05:28.399Z,60.01
2023-02-08T05:07:54.849Z,60.00
2023-02-08T05:10:21.596Z,59.61
2023-02-08T05:12:48.197Z,60.00
2023-02-08T05:15:14.902Z,60.17
2023-02-08T05:17:41.397Z,59.83
2023-02-08T05:20:08.896Z,60.05
2023-02-08T05:22:35.622Z,59.84
2023-02-08T05:25:02.449Z,60.08
2023-02-08T05:27:28.986Z,60.05
2023-02-08T05:29:57.129Z,60.32
2023-02-08T05:32:25.165Z,59.81
2023-02-08T05:34:51.585Z,60.42
2023-02-08T05:37:18.016Z,60.23
2023-02-08T05:39:44.535Z,60.36
2023-02-08T05:42:11.397Z,59.81
2023-02-08T05:44:38.253Z,60.45
2023-02-08T05:47:05.004Z,60.06
2023-02-08T05:49:31.504Z,60.05
2023-02-08T05:52:00.589Z,60.47
2023-02-08T05:54:27.453Z,59.99
2023-02-08T05:56:54.270Z,60.32
2023-02-08T05:59:20.786Z,60.55
2023-02-08T06:05:02.369Z,60.15
2023-02-08T06:07:29.687Z,59.94
2023-02-08T06:09:56.063Z,60.35
2023-02-08T06:12:22.390Z,60.50
2023-02-08T06:14:48.835Z,60.50
2023-02-08T06:17:15.316Z,60.27
2023-02-08T06:19:41.640Z,60.43
2023-02-08T06:22:07.996Z,60.73
2023-02-08T06:24:34.358Z,60.77
2023-02-08T06:27:00.732Z,60.78
2023-02-08T06:29:27.107Z,60.86
2023-02-08T06:31:53.615Z,60.33
2023-02-08T06:34:20.151Z,60.71
2023-02-08T06:36:46.670Z,60.91
2023-02-08T06:39:13.067Z,61.10
2023-02-08T06:41:39.496Z,60.64
2023-02-08T06:44:05.884Z,60.81
2023-02-08T06:46:32.298Z,60.81
2023-02-08T06:49:00.250Z,60.86
2023-02-08T06:51:27.411Z,60.70
2023-02-08T06:53:53.827Z,60.96
2023-02-08T06:56:20.212Z,61.42
2023-02-08T06:58:46.706Z,61.08
2023-02-08T07:01:14.230Z,61.08
2023-02-08T07:03:41.267Z,60.90
2023-02-08T07:06:19.336Z,61.66
2023-02-08T07:08:47.036Z,61.48
2023-02-08T07:11:18.633Z,61.25
2023-02-08T07:13:47.821Z,61.22
2023-02-08T07:16:14.669Z,61.57
2023-02-08T07:18:41.222Z,60.82
2023-02-08T07:21:07.732Z,61.05
2023-02-08T07:23:34.391Z,60.96
2023-02-08T07:26:04.078Z,60.66
2023-02-08T07:28:30.869Z,60.98
2023-02-08T07:30:57.800Z,60.98
2023-02-08T07:33:25.118Z,60.85
2023-02-08T07:35:51.577Z,61.04
2023-02-08T07:38:20.599Z,60.95
2023-02-08T07:40:47.168Z,61.18
2023-02-08T07:43:13.512Z,60.68
2023-02-08T07:45:40.539Z,61.07
2023-02-08T07:48:07.073Z,61.00
2023-02-08T07:50:33.516Z,60.87
2023-02-08T07:52:59.921Z,61.03
2023-02-08T07:55:27.542Z,61.10
2023-02-08T07:57:56.717Z,61.01
2023-02-08T08:00:23.551Z,60.91
2023-02-08T08:02:51.058Z,60.33
2023-02-08T08:05:17.457Z,60.31
2023-02-08T08:07:43.856Z,60.25
2023-02-08T08:10:10.304Z,59.76
2023-02-08T08:12:36.669Z,59.86
2023-02-08T08:15:03.220Z,59.15
2023-02-08T08:17:30.128Z,59.41
2023-02-08T08:19:56.619Z,59.16
2023-02-08T08:22:22.985Z,58.82
2023-02-08T08:24:49.384Z,58.72
2023-02-08T08:27:15.830Z,58.67
2023-02-08T08:29:42.249Z,57.86
2023-02-08T08:32:11.501Z,58.02
2023-02-08T08:34:38.186Z,57.54
2023-02-08T08:37:04.561Z,57.51
2023-02-08T08:39:32.032Z,57.04
2023-02-08T08:41:59.906Z,56.80
2023-02-08T08:44:26.615Z,56.81
2023-02-08T08:47:00.601Z,56.68
2023-02-08T08:49:28.419Z,56.41
2023-02-08T08:51:55.783Z,55.95
2023-02-08T08:54:22.402Z,55.75
2023-02-08T08:56:48.899Z,55.58
2023-02-08T08:59:15.286Z,55.53
2023-02-08T09:01:42.681Z,55.34
2023-02-08T09:04:10.147Z,55.08
2023-02-08T09:06:36.628Z,55.16
2023-02-08T09:09:03.567Z,55.09
2023-02-08T09:11:30.282Z,54.31
2023-02-08T09:13:56.665Z,54.24
2023-02-08T09:16:24.501Z,54.35
2023-02-08T09:18:51.088Z,54.17
2023-02-08T09:21:20.086Z,54.08
2023-02-08T09:23:49.829Z,54.15
2023-02-08T09:26:18.582Z,54.07
2023-02-08T09:28:45.191Z,53.48
2023-02-08T09:31:18.482Z,53.35
2023-02-08T09:33:44.949Z,52.87
2023-02-08T09:36:11.367Z,53.01
2023-02-08T09:38:38.466Z,52.74
2023-02-08T09:41:24.758Z,53.20
2023-02-08T09:44:13.018Z,52.80
2023-02-08T09:46:45.163Z,52.27
2023-02-08T09:49:20.012Z,52.56
2023-02-08T09:51:59.744Z,52.37
2023-02-08T09:54:39.392Z,52.30
2023-02-08T09:57:14.156Z,52.03
2023-02-08T10:00:12.429Z,51.95
2023-02-08T10:02:41.434Z,51.85
2023-02-08T10:05:16.766Z,51.68
2023-02-08T10:07:43.428Z,51.54
2023-02-08T10:10:33.405Z,51.98
2023-02-08T10:13:08.517Z,51.90
2023-02-08T10:15:51.514Z,51.97
2023-02-08T10:18:57.209Z,51.63
2023-02-08T10:21:42.136Z,51.58
2023-02-08T10:24:30.704Z,51.28
2023-02-08T10:27:10.628Z,51.16
2023-02-08T10:29:52.156Z,50.31
2023-02-08T10:32:51.527Z,50.37
2023-02-08T10:35:26.522Z,50.29
2023-02-08T10:37:54.040Z,49.70
2023-02-08T10:40:35.932Z,50.32
2023-02-08T10:43:32.641Z,50.14
2023-02-08T10:46:05.260Z,51.26
2023-02-08T10:48:50.254Z,49.88
2023-02-08T10:51:18.766Z,49.27
2023-02-08T10:53:46.148Z,48.34
2023-02-08T10:56:41.735Z,48.90
2023-02-08T10:59:21.826Z,48.65
2023-02-08T11:01:50.234Z,47.75
2023-02-08T11:04:18.197Z,47.90
2023-02-08T11:06:45.902Z,47.55
2023-02-08T11:09:31.517Z,47.70
2023-02-08T11:12:00.508Z,47.88
2023-02-08T11:14:45.613Z,47.19
2023-02-08T11:17:28.787Z,47.34
2023-02-08T11:19:58.509Z,46.70
2023-02-08T11:22:27.682Z,46.85
2023-02-08T11:24:57.849Z,46.88
2023-02-08T11:27:33.964Z,46.74
2023-02-08T11:30:09.316Z,46.86
2023-02-08T11:32:36.740Z,46.53
2023-02-08T11:35:21.785Z,46.35
2023-02-08T11:37:50.122Z,45.87
2023-02-08T11:40:22.592Z,46.13
2023-02-08T11:42:49.849Z,45.53
2023-02-08T11:45:22.445Z,46.06
2023-02-08T11:47:50.173Z,45.69
2023-02-08T11:50:31.952Z,46.05
2023-02-08T11:53:01.306Z,44.75
2023-02-08T11:55:32.096Z,45.15
2023-02-08T11:58:02.130Z,45.31
2023-02-08T12:00:43.701Z,45.02
2023-02-08T12:03:18.323Z,44.03
2023-02-08T12:05:56.010Z,45.02
2023-02-08T12:08:36.699Z,44.47
2023-02-08T12:11:12.108Z,44.34
2023-02-08T12:13:59.849Z,44.62
2023-02-08T12:16:55.675Z,44.51
2023-02-08T12:19:57.921Z,44.67
2023-02-08T12:22:29.458Z,43.20
2023-02-08T12:25:18.375Z,43.50
2023-02-08T12:28:00.798Z,43.63
2023-02-08T12:30:59.367Z,43.39
2023-02-08T12:33:44.781Z,43.78
2023-02-08T12:36:34.103Z,43.52
2023-02-08T12:39:26.034Z,42.71
2023-02-08T12:41:52.696Z,42.16
2023-02-08T12:44:56.464Z,43.10
2023-02-08T12:47:39.387Z,42.55
2023-02-08T12:50:26.729Z,42.55
2023-02-08T12:53:00.865Z,42.05
2023-02-08T12:55:35.442Z,42.21
2023-02-08T12:58:26.588Z,41.99
2023-02-08T13:00:55.222Z,40.98
2023-02-08T13:03:24.342Z,41.55
2023-02-08T13:06:02.166Z,41.16
2023-02-08T13:08:50.278Z,41.35
2023-02-08T13:11:30.100Z,41.42
2023-02-08T13:14:34.181Z,41.57
2023-02-08T13:17:39.327Z,42.06
2023-02-08T13:20:05.837Z,40.54
2023-02-08T13:22:37.256Z,41.41
2023-02-08T13:25:08.455Z,40.32
2023-02-08T13:27:35.391Z,40.74
2023-02-08T13:30:02.465Z,40.19
2023-02-08T13:32:50.864Z,40.90
2023-02-08T13:35:23.721Z,39.98
2023-02-08T13:38:03.083Z,40.73
2023-02-08T13:40:35.485Z,39.73
2023-02-08T13:43:34.813Z,39.63
2023-02-08T13:46:02.689Z,39.16
2023-02-08T13:48:45.817Z,39.67
2023-02-08T13:51:33.387Z,39.59
2023-02-08T13:54:00.216Z,38.75
2023-02-08T13:56:40.558Z,39.48
2023-02-08T13:59:25.870Z,39.36
2023-02-08T14:02:19.092Z,39.11
2023-02-08T14:04:47.532Z,38.54
2023-02-08T14:07:14.244Z,38.18
2023-02-08T14:09:49.546Z,37.73
2023-02-08T14:12:21.329Z,38.23
2023-02-08T14:15:05.868Z,39.39
2023-02-08T14:17:32.915Z,37.55
2023-02-08T14:20:06.110Z,38.01
2023-02-08T14:22:40.611Z,37.92
2023-02-08T14:25:18.295Z,38.21
2023-02-08T14:28:03.203Z,38.35
2023-02-08T14:30:36.134Z,38.37
2023-02-08T14:33:07.229Z,37.96
2023-02-08T14:35:37.659Z,37.79
2023-02-08T14:38:19.042Z,38.32
2023-02-08T14:40:49.690Z,38.16
2023-02-08T14:43:18.792Z,37.19
2023-02-08T14:45:55.632Z,37.09
2023-02-08T14:48:35.109Z,37.53
2023-02-08T14:51:08.813Z,37.74
2023-02-08T14:53:54.004Z,35.81
2023-02-08T14:56:30.982Z,36.77
2023-02-08T14:59:01.538Z,36.88
2023-02-08T15:01:27.824Z,36.34
2023-02-08T15:04:02.150Z,36.97
2023-02-08T15:06:38.075Z,36.79
2023-02-08T15:09:12.343Z,36.52
2023-02-08T15:11:40.435Z,36.47
2023-02-08T15:14:07.291Z,36.77
2023-02-08T15:16:41.429Z,36.01
2023-02-08T15:19:09.440Z,35.92
2023-02-08T15:21:40.892Z,36.08
2023-02-08T15:24:19.188Z,36.64
2023-02-08T15:26:53.769Z,37.01
2023-02-08T15:29:42.898Z,36.20
2023-02-08T15:32:16.324Z,36.61
2023-02-08T15:34:44.533Z,35.95
2023-02-08T15:37:18.301Z,36.56
2023-02-08T15:39:48.918Z,36.56
2023-02-08T15:42:24.331Z,36.56
2023-02-08T15:44:51.819Z,36.71
2023-02-08T15:47:42.010Z,36.92
2023-02-08T15:50:18.007Z,36.84
2023-02-08T15:52:44.904Z,36.70
2023-02-08T15:55:17.928Z,36.96
2023-02-08T15:57:58.525Z,37.64
2023-02-08T16:00:31.470Z,37.43
2023-02-08T16:03:20.470Z,37.52
2023-02-08T16:06:02.884Z,36.80
2023-02-08T16:08:40.214Z,37.04
2023-02-08T16:11:20.427Z,37.81
2023-02-08T16:13:49.722Z,36.99
2023-02-08T16:16:16.261Z,37.29
2023-02-08T16:18:50.008Z,37.54
2023-02-08T16:21:35.144Z,38.03
2023-02-08T16:24:19.026Z,38.05
2023-02-08T16:26:58.875Z,38.10
2023-02-08T16:29:28.691Z,38.18
2023-02-08T16:32:03.553Z,37.88
2023-02-08T16:34:32.254Z,37.87
2023-02-08T16:36:59.661Z,37.98
2023-02-08T16:39:51.418Z,38.92
2023-02-08T16:42:30.135Z,38.60
2023-02-08T16:45:01.315Z,38.42
2023-02-08T16:47:42.624Z,38.54
2023-02-08T16:50:15.653Z,39.28
2023-02-08T16:52:42.257Z,39.27
2023-02-08T16:55:17.362Z,39.66
2023-02-08T16:57:47.961Z,40.27
2023-02-08T17:00:18.353Z,40.60
2023-02-08T17:02:44.946Z,40.39
2023-02-08T17:05:11.997Z,40.26
2023-02-08T17:07:38.715Z,40.87
2023-02-08T17:10:07.862Z,41.13
2023-02-08T17:12:34.311Z,41.23
2023-02-08T17:15:00.820Z,41.48
2023-02-08T17:17:27.691Z,41.33
2023-02-08T17:19:54.046Z,41.32
2023-02-08T17:22:20.397Z,41.50
2023-02-08T17:24:46.731Z,42.31
2023-02-08T17:27:14.159Z,42.35
2023-02-08T17:29:41.454Z,42.09
2023-02-08T17:32:07.884Z,42.17
2023-02-08T17:34:35.707Z,42.81
2023-02-08T17:37:02.677Z,42.38
2023-02-08T17:39:29.141Z,43.09
2023-02-08T17:41:55.497Z,43.32
2023-02-08T17:44:21.833Z,43.36
2023-02-08T17:46:48.230Z,43.28
2023-02-08T17:49:16.221Z,43.56
2023-02-08T17:51:42.602Z,43.47
2023-02-08T17:54:11.128Z,43.30
2023-02-08T17:56:37.772Z,43.38
2023-02-08T17:59:05.301Z,44.01
2023-02-08T18:01:32.248Z,43.74
2023-02-08T18:03:59.487Z,43.55
2023-02-08T18:06:26.292Z,43.63
2023-02-08T18:08:54.687Z,43.43
2023-02-08T18:11:23.214Z,43.80
2023-02-08T18:13:51.927Z,43.50
2023-02-08T18:16:26.913Z,43.26
2023-02-08T18:18:57.766Z,43.58
2023-02-08T18:21:30.142Z,43.51
2023-02-08T18:23:56.487Z,43.70
2023-02-08T18:26:25.107Z,43.25
2023-02-08T18:28:52.343Z,43.57
2023-02-08T18:31:20.519Z,43.52
2023-02-08T18:33:49.232Z,43.87
2023-02-08T18:36:16.916Z,43.03
2023-02-08T18:38:45.604Z,43.56
2023-02-08T18:41:18.589Z,43.67
2023-02-08T18:43:45.694Z,43.63
2023-02-08T18:46:14.447Z,43.26
2023-02-08T18:48:42.104Z,43.60
2023-02-08T18:51:10.634Z,43.89
2023-02-08T18:53:39.785Z,43.52
2023-02-08T18:56:07.753Z,43.61
2023-02-08T18:58:34.691Z,43.49
2023-02-08T19:01:16.183Z,43.54
2023-02-08T19:03:44.745Z,43.85
2023-02-08T19:06:14.409Z,43.95
2023-02-08T19:08:41.640Z,43.66
2023-02-08T19:11:18.628Z,43.84
2023-02-08T19:13:45.550Z,44.08
2023-02-08T19:16:13.019Z,44.19
2023-02-08T19:18:40.304Z,43.89
2023-02-08T19:21:09.580Z,43.85
2023-02-08T19:23:36.345Z,43.83
2023-02-08T19:26:05.306Z,44.08
2023-02-08T19:28:35.849Z,44.21
2023-02-08T19:31:10.821Z,43.90
2023-02-08T19:33:42.765Z,43.74
2023-02-08T19:36:20.346Z,44.24
2023-02-08T19:38:50.320Z,44.02
2023-02-08T19:41:23.740Z,43.99
2023-02-08T19:43:51.719Z,44.14
2023-02-08T19:46:22.193Z,43.95
2023-02-08T19:48:53.927Z,43.85
2023-02-08T19:51:20.608Z,44.37
2023-02-08T19:53:47.529Z,44.17
2023-02-08T19:56:18.807Z,44.42
2023-02-08T19:58:46.721Z,44.36
2023-02-08T20:01:18.972Z,44.28
2023-02-08T20:03:46.380Z,44.11
2023-02-08T20:06:15.268Z,44.04
2023-02-08T20:08:41.726Z,44.28
2023-02-08T20:11:16.679Z,44.31
2023-02-08T20:13:43.147Z,44.25
2023-02-08T20:16:09.569Z,44.31
2023-02-08T20:18:35.940Z,44.41
2023-02-08T20:21:03.070Z,44.51
2023-02-08T20:23:30.422Z,44.48
2023-02-08T20:26:05.457Z,44.33
2023-02-08T20:28:31.801Z,44.50
2023-02-08T20:30:58.389Z,44.60
2023-02-08T20:33:24.870Z,44.41
2023-02-08T20:35:51.293Z,44.81
2023-02-08T20:38:17.722Z,44.54
2023-02-08T20:40:44.376Z,44.79
2023-02-08T20:43:10.901Z,44.86
2023-02-08T20:45:40.782Z,44.64
2023-02-08T20:48:07.235Z,44.74
2023-02-08T20:50:34.085Z,44.79
2023-02-08T20:53:00.439Z,44.87
2023-02-08T20:55:27.065Z,44.88
2023-02-08T20:57:53.417Z,44.89
2023-02-08T21:00:40.126Z,45.02
2023-02-08T21:03:12.837Z,45.17
2023-02-08T21:05:39.673Z,44.92
2023-02-08T21:08:06.008Z,45.14
2023-02-08T21:10:35.971Z,45.15
2023-02-08T21:13:02.405Z,45.01
2023-02-08T21:15:28.845Z,45.44
2023-02-08T21:17:55.305Z,45.39
2023-02-08T21:20:21.707Z,45.42
2023-02-08T21:22:48.090Z,45.49
2023-02-08T21:25:14.549Z,45.50
2023-02-08T21:27:41.067Z,44.99
2023-02-08T21:30:08.124Z,45.63
2023-02-08T21:32:34.512Z,45.62
2023-02-08T21:35:00.864Z,45.53
2023-02-08T21:37:27.188Z,45.35
2023-02-08T21:39:53.577Z,45.65
2023-02-08T21:42:19.993Z,45.72
2023-02-08T21:44:46.335Z,45.89
2023-02-08T21:47:12.669Z,46.00
2023-02-08T21:49:57.608Z,45.79
2023-02-08T21:52:42.401Z,46.05
2023-02-08T21:55:08.752Z,46.08
2023-02-08T21:57:39.785Z,46.07
2023-02-08T22:00:08.278Z,46.06
2023-02-08T22:02:34.691Z,46.06
2023-02-08T22:05:02.053Z,46.40
2023-02-08T22:07:29.134Z,46.39
2023-02-08T22:09:55.579Z,46.24
2023-02-08T22:12:23.289Z,46.45
2023-02-08T22:14:51.063Z,46.33
2023-02-08T22:17:18.021Z,46.55
2023-02-08T22:19:44.452Z,46.54
2023-02-08T22:22:11.893Z,46.37
2023-02-08T22:24:38.367Z,46.59
2023-02-08T22:27:05.032Z,46.67
2023-02-08T22:29:31.464Z,46.91
2023-02-08T22:31:58.030Z,46.76
2023-02-08T22:34:26.682Z,46.86
2023-02-08T22:36:53.296Z,47.00
2023-02-08T22:39:19.767Z,46.89
2023-02-08T22:41:46.143Z,47.04
2023-02-08T22:44:12.819Z,47.00
2023-02-08T22:46:39.208Z,47.34
2023-02-08T22:49:05.557Z,47.14
2023-02-08T22:51:31.976Z,47.19
2023-02-08T22:53:58.528Z,47.18
2023-02-08T22:56:24.876Z,47.56
2023-02-08T22:58:51.245Z,47.32
2023-02-08T23:01:17.940Z,47.51
2023-02-08T23:03:44.362Z,47.61
2023-02-08T23:06:14.796Z,47.58
2023-02-08T23:08:42.560Z,47.13
2023-02-08T23:11:12.176Z,47.44
2023-02-08T23:13:38.567Z,47.42
2023-02-08T23:16:05.292Z,47.64
2023-02-08T23:18:31.689Z,47.62
2023-02-08T23:20:58.047Z,47.55
2023-02-08T23:23:24.525Z,47.90
2023-02-08T23:25:50.857Z,48.01
2023-02-08T23:28:17.307Z,47.89
2023-02-08T23:30:44.465Z,48.01
2023-02-08T23:33:11.051Z,47.90
2023-02-08T23:35:41.608Z,47.79
2023-02-08T23:38:08.648Z,48.22
2023-02-08T23:40:35.152Z,47.94
2023-02-08T23:43:01.592Z,47.91
2023-02-08T23:45:28.646Z,47.97
2023-02-08T23:47:55.018Z,48.00
2023-02-08T23:50:21.336Z,48.06
2023-02-08T23:52:47.718Z,48.16
2023-02-08T23:55:14.308Z,48.54
2023-02-08T23:57:40.736Z,48.41
